createdAt,value
2023-02-04T00:00:37.384Z,100.00
2023-02-04T00:03:07.671Z,100.00
2023-02-04T00:05:35.961Z,100.00
2023-02-04T00:08:04.747Z,100.00
2023-02-04T00:10:33.526Z,100.00
2023-02-04T00:13:01.936Z,100.00
2023-02-04T00:15:30.723Z,100.00
2023-02-04T00:17:59.000Z,100.00
2023-02-04T00:20:29.003Z,100.00
2023-02-04T00:22:57.557Z,100.00
2023-02-04T00:25:26.342Z,100.00
2023-02-04T00:27:54.939Z,100.00
2023-02-04T00:30:23.226Z,100.00
2023-02-04T00:32:54.790Z,100.00
2023-02-04T00:35:23.462Z,100.00
2023-02-04T00:37:55.813Z,100.00
2023-02-04T00:40:24.138Z,100.00
2023-02-04T00:42:52.363Z,100.00
2023-02-04T00:45:21.118Z,100.00
2023-02-04T00:47:49.343Z,100.00
2023-02-04T00:50:18.714Z,100.00
2023-02-04T00:52:47.333Z,100.00
2023-02-04T00:55:18.207Z,100.00
2023-02-04T00:57:47.474Z,100.00
2023-02-04T01:00:18.483Z,100.00
2023-02-04T01:02:46.761Z,100.00
2023-02-04T01:05:15.079Z,100.00
2023-02-04T01:07:43.567Z,100.00
2023-02-04T01:10:12.565Z,100.00
2023-02-04T01:12:42.133Z,100.00
2023-02-04T01:15:11.726Z,100.00
2023-02-04T01:17:41.550Z,100.00
2023-02-04T01:20:11.410Z,100.00
2023-02-04T01:22:39.589Z,100.00
2023-02-04T01:25:09.357Z,100.00
2023-02-04T01:27:45.762Z,100.00
2023-02-04T01:30:16.558Z,100.00
2023-02-04T01:32:45.134Z,100.00
2023-02-04T01:35:13.375Z,100.00
2023-02-04T01:37:41.683Z,100.00
2023-02-04T01:40:12.414Z,100.00
2023-02-04T01:42:41.471Z,100.00
2023-02-04T01:45:12.055Z,100.00
2023-02-04T01:47:41.162Z,100.00
2023-02-04T01:50:12.983Z,100.00
2023-02-04T01:52:42.573Z,100.00
2023-02-04T01:55:16.678Z,100.00
2023-02-04T01:57:46.061Z,100.00
2023-02-04T02:00:28.836Z,100.00
2023-02-04T02:02:58.407Z,100.00
2023-02-04T02:05:32.468Z,100.00
2023-02-04T02:08:03.178Z,100.00
2023-02-04T02:10:32.511Z,100.00
2023-02-04T02:13:01.450Z,100.00
2023-02-04T02:15:33.122Z,100.00
2023-02-04T02:18:01.634Z,100.00
2023-02-04T02:20:30.982Z,100.00
2023-02-04T02:23:15.472Z,100.00
2023-02-04T02:25:46.655Z,100.00
2023-02-04T02:28:18.084Z,100.00
2023-02-04T02:30:49.558Z,100.00
2023-02-04T02:33:20.842Z,100.00
2023-02-04T02:35:49.837Z,100.00
2023-02-04T02:38:20.475Z,100.00
2023-02-04T02:40:51.082Z,100.00
2023-02-04T02:43:23.837Z,100.00
2023-02-04T02:45:52.312Z,100.00
2023-02-04T02:48:20.586Z,100.00
2023-02-04T02:50:50.189Z,100.00
2023-02-04T02:53:21.725Z,100.00
2023-02-04T02:55:53.122Z,100.00
2023-02-04T02:58:28.939Z,100.00
2023-02-04T03:00:58.567Z,100.00
2023-02-04T03:03:31.296Z,100.00
2023-02-04T03:06:05.698Z,100.00
2023-02-04T03:08:34.106Z,100.00
2023-02-04T03:11:03.894Z,100.00
2023-02-04T03:13:34.114Z,100.00
2023-02-04T03:16:02.736Z,100.00
2023-02-04T03:18:31.754Z,100.00
2023-02-04T03:21:00.450Z,100.00
2023-02-04T03:23:28.892Z,100.00
2023-02-04T03:25:57.812Z,100.00
2023-02-04T03:28:27.611Z,100.00
2023-02-04T03:30:56.445Z,100.00
2023-02-04T03:33:26.439Z,100.00
2023-02-04T03:35:54.759Z,100.00
2023-02-04T03:38:22.970Z,100.00
2023-02-04T03:40:51.263Z,100.00
2023-02-04T03:43:19.492Z,100.00
2023-02-04T03:45:49.173Z,100.00
2023-02-04T03:48:17.704Z,100.00
2023-02-04T03:50:46.419Z,100.00
2023-02-04T03:53:14.924Z,100.00
2023-02-04T03:55:43.148Z,100.00
2023-02-04T03:58:11.644Z,100.00
2023-02-04T04:00:39.817Z,100.00
2023-02-04T04:03:09.479Z,100.00
2023-02-04T04:05:38.138Z,100.00
2023-02-04T04:08:06.575Z,100.00
2023-02-04T04:10:35.020Z,100.00
2023-02-04T04:13:03.645Z,100.00
2023-02-04T04:15:32.006Z,100.00
2023-02-04T04:18:00.507Z,100.00
2023-02-04T04:20:30.467Z,100.00
2023-02-04T04:22:59.000Z,100.00
2023-02-04T04:25:27.264Z,100.00
2023-02-04T04:27:58.192Z,100.00
2023-02-04T04:30:26.449Z,100.00
2023-02-04T04:32:54.928Z,100.00
2023-02-04T04:35:23.260Z,100.00
2023-02-04T04:37:52.814Z,100.00
2023-02-04T04:40:21.088Z,100.00
2023-02-04T04:42:49.296Z,100.00
2023-02-04T04:45:17.658Z,100.00
2023-02-04T04:47:45.814Z,100.00
2023-02-04T04:50:14.529Z,100.00
2023-02-04T04:52:43.034Z,100.00
2023-02-04T04:55:12.781Z,100.00
2023-02-04T04:57:41.131Z,100.00
2023-02-04T05:00:13.038Z,100.00
2023-02-04T05:02:41.876Z,100.00
2023-02-04T05:05:10.356Z,100.00
2023-02-04T05:07:38.753Z,100.00
2023-02-04T05:10:08.207Z,100.00
2023-02-04T05:12:37.926Z,100.00
2023-02-04T05:15:07.089Z,100.00
2023-02-04T05:17:35.784Z,100.00
2023-02-04T05:20:04.145Z,100.00
2023-02-04T05:22:32.726Z,100.00
2023-02-04T05:25:00.953Z,100.00
2023-02-04T05:27:29.183Z,100.00
2023-02-04T05:29:58.719Z,100.00
2023-02-04T05:32:27.409Z,100.00
2023-02-04T05:34:55.881Z,100.00
2023-02-04T05:37:24.107Z,100.00
2023-02-04T05:39:52.302Z,100.00
2023-02-04T05:42:20.549Z,100.00
2023-02-04T05:44:48.815Z,100.00
2023-02-04T05:47:20.026Z,100.00
2023-02-04T05:49:48.325Z,100.00
2023-02-04T05:52:16.583Z,100.00
2023-02-04T05:54:44.835Z,100.00
2023-02-04T05:57:13.362Z,100.00
2023-02-04T05:59:41.953Z,100.00
2023-02-04T06:02:10.480Z,100.00
2023-02-04T06:04:40.093Z,100.00
2023-02-04T06:07:08.586Z,100.00
2023-02-04T06:09:36.824Z,100.00
2023-02-04T06:12:05.754Z,100.00
2023-02-04T06:14:33.953Z,100.00
2023-02-04T06:17:02.203Z,100.00
2023-02-04T06:19:30.404Z,100.00
2023-02-04T06:21:59.979Z,100.00
2023-02-04T06:24:28.340Z,100.00
2023-02-04T06:26:56.852Z,100.00
2023-02-04T06:29:25.327Z,100.00
2023-02-04T06:31:53.987Z,100.00
2023-02-04T06:34:22.204Z,100.00
2023-02-04T06:36:50.410Z,100.00
2023-02-04T06:39:21.052Z,100.00
2023-02-04T06:41:49.453Z,100.00
2023-02-04T06:44:17.947Z,100.00
2023-02-04T06:46:46.228Z,100.00
2023-02-04T06:49:14.510Z,100.00
2023-02-04T06:51:43.088Z,100.00
2023-02-04T06:54:11.276Z,100.00
2023-02-04T06:56:43.609Z,100.00
2023-02-04T06:59:12.000Z,100.00
2023-02-04T07:01:40.649Z,100.00
2023-02-04T07:04:09.247Z,100.00
2023-02-04T07:06:37.523Z,100.00
2023-02-04T07:09:05.742Z,100.00
2023-02-04T07:11:33.926Z,100.00
2023-02-04T07:14:04.183Z,100.00
2023-02-04T07:16:33.499Z,100.00
2023-02-04T07:19:01.690Z,100.00
2023-02-04T07:21:32.325Z,100.00
2023-02-04T07:24:04.563Z,100.00
2023-02-04T07:26:34.259Z,100.00
2023-02-04T07:29:03.892Z,100.00
2023-02-04T07:31:32.174Z,100.00
2023-02-04T07:34:00.670Z,100.00
2023-02-04T07:36:29.293Z,100.00
2023-02-04T07:38:57.502Z,100.00
2023-02-04T07:41:25.747Z,100.00
2023-02-04T07:43:53.932Z,100.00
2023-02-04T07:46:23.567Z,100.00
2023-02-04T07:48:51.954Z,100.00
2023-02-04T07:51:20.165Z,100.00
2023-02-04T07:53:48.373Z,100.00
2023-02-04T07:56:17.402Z,100.00
2023-02-04T07:58:45.941Z,100.00
2023-02-04T08:01:14.205Z,100.00
2023-02-04T08:03:44.074Z,100.00
2023-02-04T08:06:12.937Z,100.00
2023-02-04T08:08:41.760Z,100.00
2023-02-04T08:11:10.186Z,100.00
2023-02-04T08:13:38.444Z,100.00
2023-02-04T08:16:07.234Z,100.00
2023-02-04T08:18:36.958Z,100.00
2023-02-04T08:21:06.944Z,100.00
2023-02-04T08:23:36.636Z,100.00
2023-02-04T08:26:06.757Z,100.00
2023-02-04T08:28:34.952Z,100.00
2023-02-04T08:31:03.918Z,100.00
2023-02-04T08:33:32.193Z,100.00
2023-02-04T08:36:00.710Z,100.00
2023-02-04T08:38:30.724Z,100.00
2023-02-04T08:41:00.126Z,100.00
2023-02-04T08:43:28.662Z,100.00
2023-02-04T08:45:57.165Z,100.00
2023-02-04T08:48:25.417Z,100.00
2023-02-04T08:50:53.610Z,100.00
2023-02-04T08:53:21.851Z,100.00
2023-02-04T08:55:51.462Z,100.00
2023-02-04T08:58:19.682Z,100.00
2023-02-04T09:00:47.956Z,100.00
2023-02-04T09:03:16.188Z,100.00
2023-02-04T09:05:44.391Z,100.00
2023-02-04T09:08:12.654Z,100.00
2023-02-04T09:10:40.888Z,100.00
2023-02-04T09:13:11.715Z,100.00
2023-02-04T09:15:40.240Z,100.00
2023-02-04T09:18:16.254Z,100.00
2023-02-04T09:20:45.345Z,100.00
2023-02-04T09:23:13.961Z,100.00
2023-02-04T09:25:43.763Z,100.00
2023-02-04T09:28:16.920Z,100.00
2023-02-04T09:30:48.241Z,100.00
2023-02-04T09:33:18.409Z,100.00
2023-02-04T09:35:46.990Z,100.00
2023-02-04T09:38:15.571Z,100.00
2023-02-04T09:40:47.900Z,100.00
2023-02-04T09:43:25.064Z,100.00
2023-02-04T09:45:54.696Z,100.00
2023-02-04T09:48:24.814Z,100.00
2023-02-04T09:50:58.455Z,100.00
2023-02-04T09:53:26.914Z,100.00
2023-02-04T09:55:55.105Z,100.00
2023-02-04T09:58:27.524Z,100.00
2023-02-04T10:01:02.572Z,100.00
2023-02-04T10:03:31.424Z,100.00
2023-02-04T10:05:59.685Z,100.00
2023-02-04T10:08:31.100Z,100.00
2023-02-04T10:11:01.302Z,100.00
2023-02-04T10:13:35.739Z,100.00
2023-02-04T10:16:11.946Z,100.00
2023-02-04T10:18:41.211Z,100.00
2023-02-04T10:21:17.879Z,100.00
2023-02-04T10:23:50.177Z,100.00
2023-02-04T10:26:19.067Z,100.00
2023-02-04T10:28:49.714Z,100.00
2023-02-04T10:31:37.671Z,100.00
2023-02-04T10:34:12.049Z,100.00
2023-02-04T10:36:41.712Z,100.00
2023-02-04T10:39:15.457Z,100.00
2023-02-04T10:41:49.962Z,100.00
2023-02-04T10:44:23.103Z,100.00
2023-02-04T10:46:53.674Z,100.00
2023-02-04T10:49:25.395Z,100.00
2023-02-04T10:51:54.491Z,100.00
2023-02-04T10:54:32.706Z,100.00
2023-02-04T10:57:18.905Z,100.00
2023-02-04T10:59:51.601Z,100.00
2023-02-04T11:02:42.211Z,100.00
2023-02-04T11:05:17.406Z,100.00
2023-02-04T11:07:47.650Z,100.00
2023-02-04T11:10:19.048Z,100.00
2023-02-04T11:13:00.669Z,100.00
2023-02-04T11:15:45.912Z,100.00
2023-02-04T11:18:29.994Z,100.00
2023-02-04T11:21:00.429Z,100.00
2023-02-04T11:23:37.798Z,100.00
2023-02-04T11:26:10.241Z,100.00
2023-02-04T11:28:49.945Z,100.00
2023-02-04T11:31:43.320Z,100.00
2023-02-04T11:34:27.314Z,100.00
2023-02-04T11:37:36.598Z,100.00
2023-02-04T11:40:30.401Z,100.00
2023-02-04T11:43:01.892Z,100.00
2023-02-04T11:45:34.188Z,100.00
2023-02-04T11:48:13.378Z,100.00
2023-02-04T11:50:42.637Z,100.00
2023-02-04T11:53:12.833Z,100.00
2023-02-04T11:55:47.802Z,100.00
2023-02-04T11:58:19.679Z,100.00
2023-02-04T12:00:48.258Z,100.00
2023-02-04T12:03:26.504Z,100.00
2023-02-04T12:05:56.088Z,100.00
2023-02-04T12:08:33.920Z,100.00
2023-02-04T12:11:08.302Z,100.00
2023-02-04T12:13:47.299Z,100.00
2023-02-04T12:16:15.889Z,100.00
2023-02-04T12:18:45.533Z,100.00
2023-02-04T12:21:14.812Z,100.00
2023-02-04T12:23:43.489Z,99.75
2023-02-04T12:26:12.709Z,98.77
2023-02-04T12:28:40.918Z,96.66
2023-02-04T12:31:09.703Z,97.05
2023-02-04T12:33:38.001Z,97.83
2023-02-04T12:36:08.969Z,98.30
2023-02-04T12:38:37.236Z,98.40
2023-02-04T12:41:05.800Z,98.28
2023-02-04T12:43:34.097Z,98.25
2023-02-04T12:46:02.614Z,97.42
2023-02-04T12:48:31.341Z,97.32
2023-02-04T12:50:59.835Z,97.67
2023-02-04T12:53:29.486Z,98.19
2023-02-04T12:55:57.966Z,97.96
2023-02-04T12:58:26.537Z,97.25
2023-02-04T13:00:55.138Z,96.66
2023-02-04T13:03:24.979Z,96.06
2023-02-04T13:05:53.181Z,95.74
2023-02-04T13:08:21.669Z,94.80
2023-02-04T13:10:52.076Z,94.75
2023-02-04T13:13:20.881Z,94.21
2023-02-04T13:15:49.586Z,93.75
2023-02-04T13:18:18.679Z,93.64
2023-02-04T13:20:47.103Z,94.31
2023-02-04T13:23:15.689Z,94.71
2023-02-04T13:25:45.140Z,95.00
2023-02-04T13:28:14.965Z,94.96
2023-02-04T13:30:43.254Z,95.16
2023-02-04T13:33:11.792Z,95.31
2023-02-04T13:35:39.990Z,95.56
2023-02-04T13:38:08.623Z,95.65
2023-02-04T13:40:36.796Z,95.85
2023-02-04T13:43:04.996Z,95.93
2023-02-04T13:45:34.884Z,95.67
2023-02-04T13:48:03.732Z,95.46
2023-02-04T13:50:32.204Z,95.85
2023-02-04T13:53:01.073Z,95.44
2023-02-04T13:55:29.280Z,94.97
2023-02-04T13:57:57.513Z,94.98
2023-02-04T14:00:25.898Z,94.71
2023-02-04T14:02:56.482Z,94.75
2023-02-04T14:05:24.973Z,94.79
2023-02-04T14:07:53.546Z,94.98
2023-02-04T14:10:24.744Z,95.00
2023-02-04T14:12:54.043Z,95.04
2023-02-04T14:15:22.655Z,94.90
2023-02-04T14:17:51.547Z,94.29
2023-02-04T14:20:21.492Z,93.86
2023-02-04T14:22:49.666Z,93.63
2023-02-04T14:25:18.034Z,93.77
2023-02-04T14:27:46.311Z,93.93
2023-02-04T14:30:19.408Z,94.05
2023-02-04T14:32:48.387Z,94.27
2023-02-04T14:35:18.193Z,93.82
2023-02-04T14:37:47.886Z,93.77
2023-02-04T14:40:18.614Z,93.28
2023-02-04T14:42:47.204Z,93.59
2023-02-04T14:45:16.736Z,93.28
2023-02-04T14:47:45.192Z,93.17
2023-02-04T14:50:16.492Z,92.97
2023-02-04T14:52:45.101Z,93.10
2023-02-04T14:55:15.126Z,92.92
2023-02-04T14:57:43.300Z,93.17
2023-02-04T15:00:13.356Z,93.25
2023-02-04T15:02:42.311Z,93.78
2023-02-04T15:05:11.531Z,93.88
2023-02-04T15:07:40.292Z,94.08
2023-02-04T15:10:10.083Z,94.09
2023-02-04T15:12:39.939Z,94.17
2023-02-04T15:15:09.075Z,94.25
2023-02-04T15:17:37.574Z,94.57
2023-02-04T15:20:06.776Z,94.79
2023-02-04T15:22:35.089Z,94.95
2023-02-04T15:25:03.689Z,95.04
2023-02-04T15:27:32.440Z,95.32
2023-02-04T15:30:02.057Z,95.51
2023-02-04T15:32:30.793Z,95.72
2023-02-04T15:34:59.327Z,95.68
2023-02-04T15:37:27.598Z,95.75
2023-02-04T15:39:57.012Z,95.76
2023-02-04T15:42:25.744Z,95.82
2023-02-04T15:44:54.084Z,95.89
2023-02-04T15:47:23.691Z,95.77
2023-02-04T15:49:52.193Z,95.65
2023-02-04T15:52:25.119Z,95.92
2023-02-04T15:54:53.718Z,95.89
2023-02-04T15:57:22.311Z,96.03
2023-02-04T15:59:50.869Z,96.18
2023-02-04T16:02:19.420Z,96.38
2023-02-04T16:04:49.452Z,96.44
2023-02-04T16:07:18.021Z,96.51
2023-02-04T16:09:46.582Z,96.77
2023-02-04T16:12:15.016Z,96.66
2023-02-04T16:14:43.541Z,96.88
2023-02-04T16:17:12.010Z,96.95
2023-02-04T16:19:40.537Z,96.99
2023-02-04T16:22:10.125Z,97.14
2023-02-04T16:24:38.707Z,97.40
2023-02-04T16:27:07.145Z,97.39
2023-02-04T16:29:35.621Z,97.59
2023-02-04T16:32:04.133Z,97.54
2023-02-04T16:34:32.647Z,97.81
2023-02-04T16:37:01.223Z,97.95
2023-02-04T16:39:30.767Z,98.18
2023-02-04T16:41:58.984Z,98.31
2023-02-04T16:44:27.566Z,98.39
2023-02-04T16:46:56.115Z,98.65
2023-02-04T16:49:24.663Z,98.64
2023-02-04T16:51:53.174Z,98.91
2023-02-04T16:54:21.729Z,98.95
2023-02-04T16:56:55.280Z,99.07
2023-02-04T16:59:24.155Z,99.09
2023-02-04T17:01:53.418Z,99.56
2023-02-04T17:04:22.104Z,99.53
2023-02-04T17:06:53.262Z,99.61
2023-02-04T17:09:22.100Z,99.54
2023-02-04T17:11:54.117Z,99.72
2023-02-04T17:14:27.466Z,99.89
2023-02-04T17:16:56.450Z,99.84
2023-02-04T17:19:25.222Z,100.00
2023-02-04T17:21:53.794Z,99.89
2023-02-04T17:24:23.058Z,100.00
2023-02-04T17:26:52.747Z,100.00
2023-02-04T17:29:22.218Z,100.00
2023-02-04T17:31:52.611Z,100.00
2023-02-04T17:34:21.573Z,100.00
2023-02-04T17:36:49.893Z,100.00
2023-02-04T17:39:18.393Z,100.00
2023-02-04T17:41:46.889Z,100.00
2023-02-04T17:44:20.022Z,100.00
2023-02-04T17:46:48.744Z,100.00
2023-02-04T17:49:16.930Z,100.00
2023-02-04T17:51:45.227Z,100.00
2023-02-04T17:54:15.107Z,100.00
2023-02-04T17:56:43.660Z,100.00
2023-02-04T17:59:12.250Z,100.00
2023-02-04T18:01:44.030Z,100.00
2023-02-04T18:04:13.817Z,100.00
2023-02-04T18:06:42.476Z,100.00
2023-02-04T18:09:17.116Z,100.00
2023-02-04T18:11:45.722Z,100.00
2023-02-04T18:14:17.120Z,100.00
2023-02-04T18:16:47.142Z,100.00
2023-02-04T18:19:20.727Z,100.00
2023-02-04T18:21:51.130Z,100.00
2023-02-04T18:24:27.121Z,100.00
2023-02-04T18:27:00.010Z,100.00
2023-02-04T18:29:35.337Z,100.00
2023-02-04T18:32:14.546Z,100.00
2023-02-04T18:34:46.775Z,100.00
2023-02-04T18:37:29.350Z,100.00
2023-02-04T18:40:19.582Z,100.00
2023-02-04T18:42:48.369Z,100.00
2023-02-04T18:45:24.953Z,100.00
2023-02-04T18:47:57.131Z,100.00
2023-02-04T18:50:29.771Z,100.00
2023-02-04T18:53:01.570Z,100.00
2023-02-04T18:55:35.482Z,100.00
2023-02-04T18:58:29.224Z,100.00
2023-02-04T19:01:01.425Z,100.00
2023-02-04T19:03:35.272Z,100.00
2023-02-04T19:06:14.737Z,100.00
2023-02-04T19:08:45.414Z,100.00
2023-02-04T19:11:31.595Z,100.00
2023-02-04T19:14:00.459Z,100.00
2023-02-04T19:16:37.074Z,100.00
2023-02-04T19:19:38.664Z,100.00
2023-02-04T19:22:28.077Z,100.00
2023-02-04T19:25:01.630Z,100.00
2023-02-04T19:27:34.328Z,100.00
2023-02-04T19:30:23.599Z,100.00
2023-02-04T19:32:55.787Z,100.00
2023-02-04T19:35:28.952Z,100.00
2023-02-04T19:38:00.600Z,100.00
2023-02-04T19:40:33.498Z,100.00
2023-02-04T19:43:21.623Z,100.00
2023-02-04T19:45:51.560Z,100.00
2023-02-04T19:48:26.672Z,100.00
2023-02-04T19:50:56.494Z,100.00
2023-02-04T19:53:29.900Z,100.00
2023-02-04T19:55:58.576Z,100.00
2023-02-04T19:58:31.135Z,100.00
2023-02-04T20:01:02.075Z,100.00
2023-02-04T20:03:41.995Z,100.00
2023-02-04T20:06:33.065Z,100.00
2023-02-04T20:09:12.595Z,100.00
2023-02-04T20:11:57.832Z,100.00
2023-02-04T20:14:42.613Z,100.00
2023-02-04T20:17:41.338Z,100.00
2023-02-04T20:20:23.609Z,100.00
2023-02-04T20:22:55.822Z,100.00
2023-02-04T20:25:47.143Z,100.00
2023-02-04T20:28:36.195Z,100.00
2023-02-04T20:31:28.566Z,100.00
2023-02-04T20:33:59.439Z,100.00
2023-02-04T20:36:43.278Z,100.00
2023-02-04T20:39:39.539Z,100.00
2023-02-04T20:42:33.228Z,100.00
2023-02-04T20:45:32.610Z,100.00
2023-02-04T20:48:20.000Z,100.00
2023-02-04T20:50:52.007Z,100.00
2023-02-04T20:53:28.090Z,100.00
2023-02-04T20:56:03.705Z,100.00
2023-02-04T20:58:38.217Z,100.00
2023-02-04T21:01:25.133Z,100.00
2023-02-04T21:03:53.468Z,100.00
2023-02-04T21:06:25.909Z,100.00
2023-02-04T21:08:55.698Z,100.00
2023-02-04T21:11:26.288Z,100.00
2023-02-04T21:13:55.804Z,100.00
2023-02-04T21:16:24.308Z,100.00
2023-02-04T21:18:54.098Z,100.00
2023-02-04T21:21:24.801Z,100.00
2023-02-04T21:23:53.018Z,100.00
2023-02-04T21:26:21.348Z,100.00
2023-02-04T21:28:51.250Z,100.00
2023-02-04T21:31:19.601Z,100.00
2023-02-04T21:33:48.193Z,100.00
2023-02-04T21:36:16.457Z,100.00
2023-02-04T21:38:47.031Z,100.00
2023-02-04T21:41:16.437Z,100.00
2023-02-04T21:43:45.428Z,100.00
2023-02-04T21:46:15.406Z,100.00
2023-02-04T21:48:44.379Z,100.00
2023-02-04T21:51:13.316Z,100.00
2023-02-04T21:53:41.983Z,100.00
2023-02-04T21:56:11.482Z,100.00
2023-02-04T21:58:40.030Z,100.00
2023-02-04T22:01:10.296Z,100.00
2023-02-04T22:03:39.911Z,100.00
2023-02-04T22:06:09.157Z,100.00
2023-02-04T22:08:37.702Z,100.00
2023-02-04T22:11:06.499Z,100.00
2023-02-04T22:13:52.976Z,100.00
2023-02-04T22:16:21.781Z,100.00
2023-02-04T22:18:51.578Z,100.00
2023-02-04T22:21:20.074Z,100.00
2023-02-04T22:23:48.604Z,100.00
2023-02-04T22:26:17.276Z,100.00
2023-02-04T22:28:45.823Z,100.00
2023-02-04T22:31:14.996Z,100.00
2023-02-04T22:33:43.573Z,100.00
2023-02-04T22:36:13.206Z,100.00
2023-02-04T22:38:41.810Z,100.00
2023-02-04T22:41:10.278Z,100.00
2023-02-04T22:43:39.293Z,100.00
2023-02-04T22:46:07.812Z,100.00
2023-02-04T22:48:36.334Z,100.00
2023-02-04T22:51:04.873Z,100.00
2023-02-04T22:53:34.573Z,100.00
2023-02-04T22:56:03.142Z,100.00
2023-02-04T22:58:31.626Z,100.00
2023-02-04T23:01:00.291Z,100.00
2023-02-04T23:03:29.115Z,100.00
2023-02-04T23:05:57.675Z,100.00
2023-02-04T23:08:26.351Z,100.00
2023-02-04T23:10:56.068Z,100.00
2023-02-04T23:13:24.691Z,100.00
2023-02-04T23:15:53.177Z,100.00
2023-02-04T23:18:21.603Z,100.00
2023-02-04T23:20:50.524Z,100.00
2023-02-04T23:23:19.093Z,100.00
2023-02-04T23:25:48.397Z,100.00
2023-02-04T23:28:18.142Z,100.00
2023-02-04T23:30:46.785Z,100.00
2023-02-04T23:33:15.376Z,100.00
2023-02-04T23:35:43.604Z,100.00
2023-02-04T23:38:12.340Z,100.00
2023-02-04T23:40:40.851Z,100.00
2023-02-04T23:43:10.891Z,100.00
2023-02-04T23:45:43.003Z,100.00
2023-02-04T23:48:12.206Z,100.00
2023-02-04T23:50:40.913Z,100.00
2023-02-04T23:53:09.581Z,100.00
2023-02-04T23:55:38.114Z,100.00
2023-02-04T23:58:07.074Z,100.00
